sensor_id;sensor_type;location;lat;lon;timestamp;P1;durP1;ratioP1;P2;durP2;ratioP2
11042;SDS011;5574;48.786;10.120;2022-10-03T00:01:17;4.50;;;3.70;;
11042;SDS011;5574;48.786;10.120;2022-10-03T00:04:06;4.33;;;3.93;;
11042;SDS011;5574;48.786;10.120;2022-10-03T00:06:43;4.37;;;3.60;;
11042;SDS011;5574;48.786;10.120;2022-10-03T00:09:25;4.40;;;4.00;;
11042;SDS011;5574;48.786;10.120;2022-10-03T00:12:02;4.43;;;4.00;;
11042;SDS011;5574;48.786;10.120;2022-10-03T00:14:39;5.10;;;4.23;;
11042;SDS011;5574;48.786;10.120;2022-10-03T00:17:12;4.90;;;4.50;;
11042;SDS011;5574;48.786;10.120;2022-10-03T00:19:46;6.00;;;4.60;;
11042;SDS011;5574;48.786;10.120;2022-10-03T00:22:27;5.50;;;4.30;;
11042;SDS011;5574;48.786;10.120;2022-10-03T00:25:02;5.23;;;4.40;;
11042;SDS011;5574;48.786;10.120;2022-10-03T00:27:42;4.73;;;4.33;;
11042;SDS011;5574;48.786;10.120;2022-10-03T00:30:14;5.00;;;4.00;;
11042;SDS011;5574;48.786;10.120;2022-10-03T00:32:50;4.83;;;4.17;;
11042;SDS011;5574;48.786;10.120;2022-10-03T00:35:31;5.07;;;4.00;;
11042;SDS011;5574;48.786;10.120;2022-10-03T00:38:19;6.63;;;4.43;;
11042;SDS011;5574;48.786;10.120;2022-10-03T00:41:03;4.73;;;3.93;;
11042;SDS011;5574;48.786;10.120;2022-10-03T00:47:10;5.90;;;4.63;;
11042;SDS011;5574;48.786;10.120;2022-10-03T00:49:57;4.53;;;4.13;;
11042;SDS011;5574;48.786;10.120;2022-10-03T00:53:02;7.17;;;4.20;;
11042;SDS011;5574;48.786;10.120;2022-10-03T00:55:56;5.10;;;4.60;;
11042;SDS011;5574;48.786;10.120;2022-10-03T00:58:44;6.87;;;5.60;;
11042;SDS011;5574;48.786;10.120;2022-10-03T01:01:21;4.67;;;4.20;;
11042;SDS011;5574;48.786;10.120;2022-10-03T01:04:01;5.50;;;4.40;;
11042;SDS011;5574;48.786;10.120;2022-10-03T01:06:41;4.83;;;4.40;;
11042;SDS011;5574;48.786;10.120;2022-10-03T01:09:18;5.93;;;4.77;;
11042;SDS011;5574;48.786;10.120;2022-10-03T01:12:02;5.50;;;4.90;;
11042;SDS011;5574;48.786;10.120;2022-10-03T01:14:46;7.67;;;4.93;;
11042;SDS011;5574;48.786;10.120;2022-10-03T01:17:34;5.33;;;4.83;;
11042;SDS011;5574;48.786;10.120;2022-10-03T01:20:17;5.10;;;4.70;;
11042;SDS011;5574;48.786;10.120;2022-10-03T01:26:13;6.70;;;5.00;;
11042;SDS011;5574;48.786;10.120;2022-10-03T01:28:54;5.63;;;4.73;;
11042;SDS011;5574;48.786;10.120;2022-10-03T01:31:47;8.03;;;4.80;;
11042;SDS011;5574;48.786;10.120;2022-10-03T01:34:21;6.80;;;4.50;;
11042;SDS011;5574;48.786;10.120;2022-10-03T01:36:56;5.33;;;4.83;;
11042;SDS011;5574;48.786;10.120;2022-10-03T01:39:31;5.97;;;5.23;;
11042;SDS011;5574;48.786;10.120;2022-10-03T01:42:08;8.20;;;4.87;;
11042;SDS011;5574;48.786;10.120;2022-10-03T01:44:43;5.67;;;5.17;;
11042;SDS011;5574;48.786;10.120;2022-10-03T01:47:23;7.53;;;5.07;;
11042;SDS011;5574;48.786;10.120;2022-10-03T01:49:56;5.47;;;5.00;;
11042;SDS011;5574;48.786;10.120;2022-10-03T01:52:31;5.87;;;5.27;;
11042;SDS011;5574;48.786;10.120;2022-10-03T01:55:04;6.70;;;5.60;;
11042;SDS011;5574;48.786;10.120;2022-10-03T01:57:39;5.83;;;5.30;;
11042;SDS011;5574;48.786;10.120;2022-10-03T02:00:14;5.70;;;5.20;;
11042;SDS011;5574;48.786;10.120;2022-10-03T02:02:44;6.03;;;5.43;;
11042;SDS011;5574;48.786;10.120;2022-10-03T02:05:16;6.13;;;5.33;;
11042;SDS011;5574;48.786;10.120;2022-10-03T02:07:51;6.03;;;5.43;;
11042;SDS011;5574;48.786;10.120;2022-10-03T02:10:24;7.70;;;5.63;;
11042;SDS011;5574;48.786;10.120;2022-10-03T02:13:02;6.13;;;5.60;;
11042;SDS011;5574;48.786;10.120;2022-10-03T02:15:40;7.83;;;6.30;;
11042;SDS011;5574;48.786;10.120;2022-10-03T02:18:20;6.90;;;5.80;;
11042;SDS011;5574;48.786;10.120;2022-10-03T02:20:56;8.83;;;6.00;;
11042;SDS011;5574;48.786;10.120;2022-10-03T02:23:36;7.53;;;6.70;;
11042;SDS011;5574;48.786;10.120;2022-10-03T02:26:09;7.60;;;6.23;;
11042;SDS011;5574;48.786;10.120;2022-10-03T02:28:58;7.20;;;6.50;;
11042;SDS011;5574;48.786;10.120;2022-10-03T02:31:54;8.30;;;5.90;;
11042;SDS011;5574;48.786;10.120;2022-10-03T02:34:59;7.17;;;6.30;;
11042;SDS011;5574;48.786;10.120;2022-10-03T02:40:38;8.77;;;6.63;;
11042;SDS011;5574;48.786;10.120;2022-10-03T02:43:34;6.60;;;6.00;;
11042;SDS011;5574;48.786;10.120;2022-10-03T02:46:58;8.67;;;6.63;;
11042;SDS011;5574;48.786;10.120;2022-10-03T02:53:17;7.87;;;6.53;;
11042;SDS011;5574;48.786;10.120;2022-10-03T02:59:31;7.47;;;6.70;;
11042;SDS011;5574;48.786;10.120;2022-10-03T03:08:14;8.80;;;7.93;;
11042;SDS011;5574;48.786;10.120;2022-10-03T03:11:04;7.93;;;7.13;;
11042;SDS011;5574;48.786;10.120;2022-10-03T03:19:45;9.27;;;8.17;;
11042;SDS011;5574;48.786;10.120;2022-10-03T03:22:47;11.83;;;8.57;;
11042;SDS011;5574;48.786;10.120;2022-10-03T03:28:17;8.80;;;8.00;;
11042;SDS011;5574;48.786;10.120;2022-10-03T03:30:58;8.73;;;7.93;;
11042;SDS011;5574;48.786;10.120;2022-10-03T03:33:35;8.97;;;8.10;;
11042;SDS011;5574;48.786;10.120;2022-10-03T03:36:12;8.47;;;7.73;;
11042;SDS011;5574;48.786;10.120;2022-10-03T03:38:50;9.60;;;8.60;;
11042;SDS011;5574;48.786;10.120;2022-10-03T03:41:28;9.00;;;8.07;;
11042;SDS011;5574;48.786;10.120;2022-10-03T03:47:12;8.97;;;7.97;;
11042;SDS011;5574;48.786;10.120;2022-10-03T03:49:59;9.70;;;8.73;;
11042;SDS011;5574;48.786;10.120;2022-10-03T03:52:45;10.43;;;8.07;;
11042;SDS011;5574;48.786;10.120;2022-10-03T03:55:34;9.03;;;7.83;;
11042;SDS011;5574;48.786;10.120;2022-10-03T03:58:12;8.93;;;8.00;;
11042;SDS011;5574;48.786;10.120;2022-10-03T04:00:53;9.07;;;8.17;;
11042;SDS011;5574;48.786;10.120;2022-10-03T04:03:35;10.50;;;8.70;;
11042;SDS011;5574;48.786;10.120;2022-10-03T04:09:09;9.13;;;8.00;;
11042;SDS011;5574;48.786;10.120;2022-10-03T04:11:57;11.40;;;7.83;;
11042;SDS011;5574;48.786;10.120;2022-10-03T04:20:38;9.33;;;7.77;;
11042;SDS011;5574;48.786;10.120;2022-10-03T04:23:20;8.17;;;7.47;;
11042;SDS011;5574;48.786;10.120;2022-10-03T04:26:02;10.77;;;7.93;;
11042;SDS011;5574;48.786;10.120;2022-10-03T04:28:50;7.87;;;7.00;;
11042;SDS011;5574;48.786;10.120;2022-10-03T04:31:38;8.77;;;7.93;;
11042;SDS011;5574;48.786;10.120;2022-10-03T04:34:16;8.70;;;7.90;;
11042;SDS011;5574;48.786;10.120;2022-10-03T04:39:44;10.03;;;7.87;;
11042;SDS011;5574;48.786;10.120;2022-10-03T04:42:19;12.50;;;8.30;;
11042;SDS011;5574;48.786;10.120;2022-10-03T04:45:06;9.27;;;8.30;;
11042;SDS011;5574;48.786;10.120;2022-10-03T04:47:43;8.13;;;7.33;;
11042;SDS011;5574;48.786;10.120;2022-10-03T04:50:19;8.57;;;7.77;;
11042;SDS011;5574;48.786;10.120;2022-10-03T04:52:55;8.70;;;7.80;;
11042;SDS011;5574;48.786;10.120;2022-10-03T04:55:38;10.70;;;7.37;;
11042;SDS011;5574;48.786;10.120;2022-10-03T04:58:14;8.60;;;7.80;;
11042;SDS011;5574;48.786;10.120;2022-10-03T05:00:51;7.97;;;7.23;;
11042;SDS011;5574;48.786;10.120;2022-10-03T05:03:27;9.17;;;8.10;;
11042;SDS011;5574;48.786;10.120;2022-10-03T05:06:08;10.77;;;8.30;;
11042;SDS011;5574;48.786;10.120;2022-10-03T05:08:56;9.03;;;7.83;;
11042;SDS011;5574;48.786;10.120;2022-10-03T05:11:35;8.60;;;7.70;;
11042;SDS011;5574;48.786;10.120;2022-10-03T05:14:11;9.10;;;7.80;;
11042;SDS011;5574;48.786;10.120;2022-10-03T05:16:49;9.03;;;7.67;;
11042;SDS011;5574;48.786;10.120;2022-10-03T05:19:36;8.97;;;8.07;;
11042;SDS011;5574;48.786;10.120;2022-10-03T05:22:15;7.90;;;7.10;;
11042;SDS011;5574;48.786;10.120;2022-10-03T05:24:48;9.30;;;7.30;;
11042;SDS011;5574;48.786;10.120;2022-10-03T05:27:24;8.43;;;7.47;;
11042;SDS011;5574;48.786;10.120;2022-10-03T05:30:01;8.27;;;7.37;;
11042;SDS011;5574;48.786;10.120;2022-10-03T05:32:34;9.27;;;7.93;;
11042;SDS011;5574;48.786;10.120;2022-10-03T05:35:13;8.50;;;7.63;;
11042;SDS011;5574;48.786;10.120;2022-10-03T05:37:55;8.57;;;7.77;;
11042;SDS011;5574;48.786;10.120;2022-10-03T05:40:36;9.27;;;8.20;;
11042;SDS011;5574;48.786;10.120;2022-10-03T05:43:11;10.90;;;7.80;;
11042;SDS011;5574;48.786;10.120;2022-10-03T05:45:51;9.03;;;7.73;;
11042;SDS011;5574;48.786;10.120;2022-10-03T05:48:29;9.53;;;8.20;;
11042;SDS011;5574;48.786;10.120;2022-10-03T05:51:06;9.50;;;8.33;;
11042;SDS011;5574;48.786;10.120;2022-10-03T05:53:51;10.63;;;8.07;;
11042;SDS011;5574;48.786;10.120;2022-10-03T05:57:01;10.30;;;8.63;;
11042;SDS011;5574;48.786;10.120;2022-10-03T06:05:53;9.27;;;8.30;;
11042;SDS011;5574;48.786;10.120;2022-10-03T06:11:45;8.90;;;8.00;;
11042;SDS011;5574;48.786;10.120;2022-10-03T06:14:27;8.10;;;7.30;;
11042;SDS011;5574;48.786;10.120;2022-10-03T06:17:02;9.03;;;7.60;;
11042;SDS011;5574;48.786;10.120;2022-10-03T06:19:51;9.23;;;7.07;;
11042;SDS011;5574;48.786;10.120;2022-10-03T06:22:42;9.57;;;7.80;;
11042;SDS011;5574;48.786;10.120;2022-10-03T06:25:43;8.57;;;7.77;;
11042;SDS011;5574;48.786;10.120;2022-10-03T06:28:38;9.93;;;7.90;;
11042;SDS011;5574;48.786;10.120;2022-10-03T06:31:32;10.47;;;8.50;;
11042;SDS011;5574;48.786;10.120;2022-10-03T06:37:33;8.23;;;7.23;;
11042;SDS011;5574;48.786;10.120;2022-10-03T06:43:43;10.80;;;7.60;;
11042;SDS011;5574;48.786;10.120;2022-10-03T06:49:27;9.20;;;7.10;;
11042;SDS011;5574;48.786;10.120;2022-10-03T06:52:15;9.93;;;7.07;;
11042;SDS011;5574;48.786;10.120;2022-10-03T06:55:14;10.47;;;7.80;;
11042;SDS011;5574;48.786;10.120;2022-10-03T07:07:05;7.77;;;6.43;;
11042;SDS011;5574;48.786;10.120;2022-10-03T07:10:00;10.80;;;6.93;;
11042;SDS011;5574;48.786;10.120;2022-10-03T07:12:46;8.97;;;6.47;;
11042;SDS011;5574;48.786;10.120;2022-10-03T07:21:29;5.77;;;5.13;;
11042;SDS011;5574;48.786;10.120;2022-10-03T07:24:30;8.30;;;6.50;;
11042;SDS011;5574;48.786;10.120;2022-10-03T07:27:28;7.90;;;5.17;;
11042;SDS011;5574;48.786;10.120;2022-10-03T07:30:13;7.80;;;6.07;;
11042;SDS011;5574;48.786;10.120;2022-10-03T07:32:57;8.67;;;5.73;;
11042;SDS011;5574;48.786;10.120;2022-10-03T07:35:52;7.40;;;5.47;;
11042;SDS011;5574;48.786;10.120;2022-10-03T07:39:08;7.57;;;5.30;;
11042;SDS011;5574;48.786;10.120;2022-10-03T07:51:13;11.97;;;4.90;;
11042;SDS011;5574;48.786;10.120;2022-10-03T07:53:53;7.03;;;4.67;;
11042;SDS011;5574;48.786;10.120;2022-10-03T07:59:43;8.23;;;4.73;;
11042;SDS011;5574;48.786;10.120;2022-10-03T08:05:36;9.90;;;4.80;;
11042;SDS011;5574;48.786;10.120;2022-10-03T08:11:21;8.87;;;4.70;;
11042;SDS011;5574;48.786;10.120;2022-10-03T08:14:00;7.90;;;4.73;;
11042;SDS011;5574;48.786;10.120;2022-10-03T08:17:00;10.00;;;5.47;;
11042;SDS011;5574;48.786;10.120;2022-10-03T08:22:42;6.97;;;4.77;;
11042;SDS011;5574;48.786;10.120;2022-10-03T08:25:18;7.97;;;4.77;;
11042;SDS011;5574;48.786;10.120;2022-10-03T08:31:05;9.67;;;5.10;;
11042;SDS011;5574;48.786;10.120;2022-10-03T08:33:59;15.40;;;5.93;;
11042;SDS011;5574;48.786;10.120;2022-10-03T08:37:01;15.27;;;6.67;;
11042;SDS011;5574;48.786;10.120;2022-10-03T08:40:01;12.47;;;5.43;;
11042;SDS011;5574;48.786;10.120;2022-10-03T08:42:53;7.60;;;5.10;;
11042;SDS011;5574;48.786;10.120;2022-10-03T08:45:39;11.40;;;5.97;;
11042;SDS011;5574;48.786;10.120;2022-10-03T08:57:35;5.63;;;4.13;;
11042;SDS011;5574;48.786;10.120;2022-10-03T09:00:19;7.70;;;3.90;;
11042;SDS011;5574;48.786;10.120;2022-10-03T09:03:15;5.73;;;3.40;;
11042;SDS011;5574;48.786;10.120;2022-10-03T09:09:20;5.13;;;3.43;;
11042;SDS011;5574;48.786;10.120;2022-10-03T09:18:27;5.13;;;3.17;;
11042;SDS011;5574;48.786;10.120;2022-10-03T09:21:20;6.73;;;3.10;;
11042;SDS011;5574;48.786;10.120;2022-10-03T09:27:36;4.63;;;2.83;;
11042;SDS011;5574;48.786;10.120;2022-10-03T09:30:20;7.30;;;2.90;;
11042;SDS011;5574;48.786;10.120;2022-10-03T09:36:05;3.80;;;2.87;;
11042;SDS011;5574;48.786;10.120;2022-10-03T09:41:35;6.70;;;2.60;;
11042;SDS011;5574;48.786;10.120;2022-10-03T09:47:37;5.70;;;2.60;;
11042;SDS011;5574;48.786;10.120;2022-10-03T09:50:47;6.27;;;3.07;;
11042;SDS011;5574;48.786;10.120;2022-10-03T09:53:39;6.13;;;3.00;;
11042;SDS011;5574;48.786;10.120;2022-10-03T09:56:35;6.23;;;2.80;;
11042;SDS011;5574;48.786;10.120;2022-10-03T09:59:33;5.73;;;3.20;;
11042;SDS011;5574;48.786;10.120;2022-10-03T10:02:36;5.30;;;3.03;;
11042;SDS011;5574;48.786;10.120;2022-10-03T10:05:40;5.77;;;2.70;;
11042;SDS011;5574;48.786;10.120;2022-10-03T10:14:46;4.23;;;3.20;;
11042;SDS011;5574;48.786;10.120;2022-10-03T10:20:23;5.63;;;2.80;;
11042;SDS011;5574;48.786;10.120;2022-10-03T10:26:07;9.23;;;3.23;;
11042;SDS011;5574;48.786;10.120;2022-10-03T10:29:05;4.87;;;3.37;;
11042;SDS011;5574;48.786;10.120;2022-10-03T10:38:22;7.30;;;3.07;;
11042;SDS011;5574;48.786;10.120;2022-10-03T10:44:22;8.53;;;3.23;;
11042;SDS011;5574;48.786;10.120;2022-10-03T10:47:23;6.60;;;3.40;;
11042;SDS011;5574;48.786;10.120;2022-10-03T10:50:40;4.70;;;2.60;;
11042;SDS011;5574;48.786;10.120;2022-10-03T10:59:48;5.27;;;2.70;;
11042;SDS011;5574;48.786;10.120;2022-10-03T11:02:40;6.30;;;3.07;;
11042;SDS011;5574;48.786;10.120;2022-10-03T11:06:05;4.17;;;2.90;;
11042;SDS011;5574;48.786;10.120;2022-10-03T11:12:17;4.90;;;2.50;;
11042;SDS011;5574;48.786;10.120;2022-10-03T11:15:26;4.90;;;2.50;;
11042;SDS011;5574;48.786;10.120;2022-10-03T11:18:31;6.53;;;2.70;;
11042;SDS011;5574;48.786;10.120;2022-10-03T11:21:33;7.80;;;2.80;;
11042;SDS011;5574;48.786;10.120;2022-10-03T11:27:50;8.17;;;2.93;;
11042;SDS011;5574;48.786;10.120;2022-10-03T11:30:56;4.35;;;2.30;;
11042;SDS011;5574;48.786;10.120;2022-10-03T11:33:57;6.40;;;2.27;;
11042;SDS011;5574;48.786;10.120;2022-10-03T11:37:02;5.23;;;2.20;;
11042;SDS011;5574;48.786;10.120;2022-10-03T11:39:39;4.63;;;3.20;;
11042;SDS011;5574;48.786;10.120;2022-10-03T11:42:12;4.28;;;2.50;;
11042;SDS011;5574;48.786;10.120;2022-10-03T11:44:49;5.32;;;2.72;;
11042;SDS011;5574;48.786;10.120;2022-10-03T11:47:41;5.93;;;2.17;;
11042;SDS011;5574;48.786;10.120;2022-10-03T11:50:31;5.80;;;2.20;;
11042;SDS011;5574;48.786;10.120;2022-10-03T11:59:09;4.00;;;2.33;;
11042;SDS011;5574;48.786;10.120;2022-10-03T12:01:55;4.05;;;1.75;;
11042;SDS011;5574;48.786;10.120;2022-10-03T12:04:36;4.60;;;2.13;;
11042;SDS011;5574;48.786;10.120;2022-10-03T12:07:13;5.70;;;2.30;;
11042;SDS011;5574;48.786;10.120;2022-10-03T12:10:10;4.32;;;2.20;;
11042;SDS011;5574;48.786;10.120;2022-10-03T12:12:43;4.32;;;2.47;;
11042;SDS011;5574;48.786;10.120;2022-10-03T12:15:22;4.45;;;2.45;;
11042;SDS011;5574;48.786;10.120;2022-10-03T12:17:58;4.57;;;2.45;;
11042;SDS011;5574;48.786;10.120;2022-10-03T12:20:34;3.97;;;2.10;;
11042;SDS011;5574;48.786;10.120;2022-10-03T12:23:17;4.28;;;2.20;;
11042;SDS011;5574;48.786;10.120;2022-10-03T12:25:51;3.67;;;2.37;;
11042;SDS011;5574;48.786;10.120;2022-10-03T12:28:22;3.58;;;2.10;;
11042;SDS011;5574;48.786;10.120;2022-10-03T12:30:53;3.85;;;2.20;;
11042;SDS011;5574;48.786;10.120;2022-10-03T12:33:31;5.97;;;2.33;;
11042;SDS011;5574;48.786;10.120;2022-10-03T12:36:13;4.30;;;2.45;;
11042;SDS011;5574;48.786;10.120;2022-10-03T12:38:44;9.57;;;2.53;;
11042;SDS011;5574;48.786;10.120;2022-10-03T12:41:36;5.18;;;2.28;;
11042;SDS011;5574;48.786;10.120;2022-10-03T12:44:19;3.83;;;2.15;;
11042;SDS011;5574;48.786;10.120;2022-10-03T12:47:01;4.13;;;1.80;;
11042;SDS011;5574;48.786;10.120;2022-10-03T12:49:48;3.65;;;1.85;;
11042;SDS011;5574;48.786;10.120;2022-10-03T12:52:22;4.38;;;2.00;;
11042;SDS011;5574;48.786;10.120;2022-10-03T12:54:57;5.53;;;1.90;;
11042;SDS011;5574;48.786;10.120;2022-10-03T12:57:47;3.33;;;1.65;;
11042;SDS011;5574;48.786;10.120;2022-10-03T13:00:19;4.55;;;1.80;;
11042;SDS011;5574;48.786;10.120;2022-10-03T13:02:54;3.90;;;1.85;;
11042;SDS011;5574;48.786;10.120;2022-10-03T13:05:34;3.45;;;1.67;;
11042;SDS011;5574;48.786;10.120;2022-10-03T13:08:24;2.45;;;1.85;;
11042;SDS011;5574;48.786;10.120;2022-10-03T13:11:04;4.18;;;2.67;;
11042;SDS011;5574;48.786;10.120;2022-10-03T13:13:44;3.83;;;2.65;;
11042;SDS011;5574;48.786;10.120;2022-10-03T13:16:22;6.57;;;3.65;;
11042;SDS011;5574;48.786;10.120;2022-10-03T13:18:57;12.85;;;9.15;;
11042;SDS011;5574;48.786;10.120;2022-10-03T13:21:35;3.97;;;2.85;;
11042;SDS011;5574;48.786;10.120;2022-10-03T13:24:20;3.80;;;2.38;;
11042;SDS011;5574;48.786;10.120;2022-10-03T13:26:59;5.05;;;2.95;;
11042;SDS011;5574;48.786;10.120;2022-10-03T13:29:42;4.68;;;3.88;;
11042;SDS011;5574;48.786;10.120;2022-10-03T13:32:12;5.03;;;2.20;;
11042;SDS011;5574;48.786;10.120;2022-10-03T13:34:51;4.33;;;2.57;;
11042;SDS011;5574;48.786;10.120;2022-10-03T13:37:55;6.03;;;2.50;;
11042;SDS011;5574;48.786;10.120;2022-10-03T13:40:33;5.72;;;2.10;;
11042;SDS011;5574;48.786;10.120;2022-10-03T13:43:02;2.35;;;2.13;;
11042;SDS011;5574;48.786;10.120;2022-10-03T13:45:37;3.85;;;2.10;;
11042;SDS011;5574;48.786;10.120;2022-10-03T13:48:10;7.07;;;2.25;;
11042;SDS011;5574;48.786;10.120;2022-10-03T13:50:41;3.95;;;1.80;;
11042;SDS011;5574;48.786;10.120;2022-10-03T13:53:17;2.95;;;1.90;;
11042;SDS011;5574;48.786;10.120;2022-10-03T13:55:55;3.20;;;1.85;;
11042;SDS011;5574;48.786;10.120;2022-10-03T13:58:34;2.85;;;1.80;;
11042;SDS011;5574;48.786;10.120;2022-10-03T14:01:22;3.38;;;1.80;;
11042;SDS011;5574;48.786;10.120;2022-10-03T14:04:10;3.78;;;1.67;;
11042;SDS011;5574;48.786;10.120;2022-10-03T14:06:52;5.82;;;3.45;;
11042;SDS011;5574;48.786;10.120;2022-10-03T14:09:36;2.55;;;1.80;;
11042;SDS011;5574;48.786;10.120;2022-10-03T14:12:17;3.47;;;1.80;;
11042;SDS011;5574;48.786;10.120;2022-10-03T14:15:02;4.25;;;1.98;;
11042;SDS011;5574;48.786;10.120;2022-10-03T14:17:44;3.78;;;2.20;;
11042;SDS011;5574;48.786;10.120;2022-10-03T14:20:21;4.00;;;2.20;;
11042;SDS011;5574;48.786;10.120;2022-10-03T14:22:58;4.35;;;1.90;;
11042;SDS011;5574;48.786;10.120;2022-10-03T14:25:35;4.78;;;1.95;;
11042;SDS011;5574;48.786;10.120;2022-10-03T14:28:11;3.53;;;1.90;;
11042;SDS011;5574;48.786;10.120;2022-10-03T14:30:46;3.72;;;2.00;;
11042;SDS011;5574;48.786;10.120;2022-10-03T14:33:23;4.35;;;2.00;;
11042;SDS011;5574;48.786;10.120;2022-10-03T14:36:00;3.65;;;2.20;;
11042;SDS011;5574;48.786;10.120;2022-10-03T14:38:46;3.83;;;2.55;;
11042;SDS011;5574;48.786;10.120;2022-10-03T14:41:35;3.40;;;1.90;;
11042;SDS011;5574;48.786;10.120;2022-10-03T14:44:11;2.85;;;1.80;;
11042;SDS011;5574;48.786;10.120;2022-10-03T14:46:41;2.00;;;1.77;;
11042;SDS011;5574;48.786;10.120;2022-10-03T14:49:15;2.35;;;1.70;;
11042;SDS011;5574;48.786;10.120;2022-10-03T14:51:46;4.28;;;2.03;;
11042;SDS011;5574;48.786;10.120;2022-10-03T14:54:16;4.47;;;2.03;;
11042;SDS011;5574;48.786;10.120;2022-10-03T14:56:46;2.78;;;1.92;;
11042;SDS011;5574;48.786;10.120;2022-10-03T14:59:18;6.05;;;1.90;;
11042;SDS011;5574;48.786;10.120;2022-10-03T15:01:47;4.20;;;2.45;;
11042;SDS011;5574;48.786;10.120;2022-10-03T15:04:21;4.20;;;2.03;;
11042;SDS011;5574;48.786;10.120;2022-10-03T15:06:52;4.22;;;2.00;;
11042;SDS011;5574;48.786;10.120;2022-10-03T15:09:22;5.25;;;2.30;;
11042;SDS011;5574;48.786;10.120;2022-10-03T15:11:55;6.13;;;2.58;;
11042;SDS011;5574;48.786;10.120;2022-10-03T15:14:29;4.00;;;2.15;;
11042;SDS011;5574;48.786;10.120;2022-10-03T15:17:00;3.97;;;2.00;;
11042;SDS011;5574;48.786;10.120;2022-10-03T15:19:32;5.13;;;2.33;;
11042;SDS011;5574;48.786;10.120;2022-10-03T15:22:04;5.35;;;2.10;;
11042;SDS011;5574;48.786;10.120;2022-10-03T15:24:48;3.78;;;1.80;;
11042;SDS011;5574;48.786;10.120;2022-10-03T15:27:17;4.20;;;2.03;;
11042;SDS011;5574;48.786;10.120;2022-10-03T15:29:49;3.38;;;1.65;;
11042;SDS011;5574;48.786;10.120;2022-10-03T15:32:22;3.08;;;2.00;;
11042;SDS011;5574;48.786;10.120;2022-10-03T15:34:54;3.72;;;1.90;;
11042;SDS011;5574;48.786;10.120;2022-10-03T15:37:24;4.78;;;1.90;;
11042;SDS011;5574;48.786;10.120;2022-10-03T15:39:58;4.38;;;2.40;;
11042;SDS011;5574;48.786;10.120;2022-10-03T15:42:32;3.47;;;1.90;;
11042;SDS011;5574;48.786;10.120;2022-10-03T15:45:16;5.18;;;2.20;;
11042;SDS011;5574;48.786;10.120;2022-10-03T15:47:46;4.28;;;1.80;;
11042;SDS011;5574;48.786;10.120;2022-10-03T15:50:16;4.28;;;2.13;;
11042;SDS011;5574;48.786;10.120;2022-10-03T15:52:48;3.13;;;2.15;;
11042;SDS011;5574;48.786;10.120;2022-10-03T15:55:17;5.00;;;2.45;;
11042;SDS011;5574;48.786;10.120;2022-10-03T15:57:48;5.78;;;2.47;;
11042;SDS011;5574;48.786;10.120;2022-10-03T16:00:21;4.60;;;2.08;;
11042;SDS011;5574;48.786;10.120;2022-10-03T16:02:53;3.75;;;2.13;;
11042;SDS011;5574;48.786;10.120;2022-10-03T16:05:25;4.57;;;1.80;;
11042;SDS011;5574;48.786;10.120;2022-10-03T16:07:54;4.07;;;2.00;;
11042;SDS011;5574;48.786;10.120;2022-10-03T16:10:26;2.28;;;1.70;;
11042;SDS011;5574;48.786;10.120;2022-10-03T16:12:55;2.05;;;1.88;;
11042;SDS011;5574;48.786;10.120;2022-10-03T16:15:29;5.28;;;2.30;;
11042;SDS011;5574;48.786;10.120;2022-10-03T16:21:08;3.45;;;2.15;;
11042;SDS011;5574;48.786;10.120;2022-10-03T16:23:39;2.80;;;1.90;;
11042;SDS011;5574;48.786;10.120;2022-10-03T16:26:10;2.78;;;2.17;;
11042;SDS011;5574;48.786;10.120;2022-10-03T16:28:43;4.10;;;1.97;;
11042;SDS011;5574;48.786;10.120;2022-10-03T16:31:17;2.95;;;1.88;;
11042;SDS011;5574;48.786;10.120;2022-10-03T16:33:47;3.58;;;2.45;;
11042;SDS011;5574;48.786;10.120;2022-10-03T16:36:17;8.57;;;2.97;;
11042;SDS011;5574;48.786;10.120;2022-10-03T16:38:45;4.88;;;2.42;;
11042;SDS011;5574;48.786;10.120;2022-10-03T16:41:19;3.70;;;2.43;;
11042;SDS011;5574;48.786;10.120;2022-10-03T16:43:53;5.05;;;2.42;;
11042;SDS011;5574;48.786;10.120;2022-10-03T16:46:22;6.25;;;2.13;;
11042;SDS011;5574;48.786;10.120;2022-10-03T16:48:50;4.33;;;2.00;;
11042;SDS011;5574;48.786;10.120;2022-10-03T16:51:39;4.38;;;1.85;;
11042;SDS011;5574;48.786;10.120;2022-10-03T16:54:10;4.70;;;2.10;;
11042;SDS011;5574;48.786;10.120;2022-10-03T16:56:39;3.07;;;1.77;;
11042;SDS011;5574;48.786;10.120;2022-10-03T16:59:10;3.80;;;2.40;;
11042;SDS011;5574;48.786;10.120;2022-10-03T17:01:41;5.30;;;2.20;;
11042;SDS011;5574;48.786;10.120;2022-10-03T17:04:12;3.47;;;2.03;;
11042;SDS011;5574;48.786;10.120;2022-10-03T17:06:45;4.53;;;2.27;;
11042;SDS011;5574;48.786;10.120;2022-10-03T17:09:16;4.43;;;2.10;;
11042;SDS011;5574;48.786;10.120;2022-10-03T17:11:49;3.40;;;1.90;;
11042;SDS011;5574;48.786;10.120;2022-10-03T17:14:19;3.93;;;2.07;;
11042;SDS011;5574;48.786;10.120;2022-10-03T17:16:50;3.93;;;1.60;;
11042;SDS011;5574;48.786;10.120;2022-10-03T17:19:28;3.57;;;2.07;;
11042;SDS011;5574;48.786;10.120;2022-10-03T17:22:04;2.73;;;1.70;;
11042;SDS011;5574;48.786;10.120;2022-10-03T17:24:37;6.07;;;2.40;;
11042;SDS011;5574;48.786;10.120;2022-10-03T17:27:14;2.57;;;2.23;;
11042;SDS011;5574;48.786;10.120;2022-10-03T17:29:46;4.53;;;1.93;;
11042;SDS011;5574;48.786;10.120;2022-10-03T17:32:21;2.43;;;1.83;;
11042;SDS011;5574;48.786;10.120;2022-10-03T17:34:55;4.40;;;1.97;;
11042;SDS011;5574;48.786;10.120;2022-10-03T17:40:32;4.70;;;2.10;;
11042;SDS011;5574;48.786;10.120;2022-10-03T17:43:23;5.20;;;2.50;;
11042;SDS011;5574;48.786;10.120;2022-10-03T17:46:02;4.27;;;2.10;;
11042;SDS011;5574;48.786;10.120;2022-10-03T17:48:34;3.07;;;2.00;;
11042;SDS011;5574;48.786;10.120;2022-10-03T17:51:26;3.43;;;2.00;;
11042;SDS011;5574;48.786;10.120;2022-10-03T17:53:56;4.80;;;2.17;;
11042;SDS011;5574;48.786;10.120;2022-10-03T17:56:25;3.40;;;1.83;;
11042;SDS011;5574;48.786;10.120;2022-10-03T17:58:57;2.53;;;2.10;;
11042;SDS011;5574;48.786;10.120;2022-10-03T18:01:30;5.60;;;2.30;;
11042;SDS011;5574;48.786;10.120;2022-10-03T18:04:03;3.67;;;2.50;;
11042;SDS011;5574;48.786;10.120;2022-10-03T18:06:34;5.67;;;2.47;;
11042;SDS011;5574;48.786;10.120;2022-10-03T18:09:08;4.90;;;2.10;;
11042;SDS011;5574;48.786;10.120;2022-10-03T18:11:46;2.87;;;2.20;;
11042;SDS011;5574;48.786;10.120;2022-10-03T18:14:18;3.83;;;2.40;;
11042;SDS011;5574;48.786;10.120;2022-10-03T18:16:54;4.37;;;2.13;;
11042;SDS011;5574;48.786;10.120;2022-10-03T18:19:32;2.83;;;1.90;;
11042;SDS011;5574;48.786;10.120;2022-10-03T18:22:14;3.73;;;1.90;;
11042;SDS011;5574;48.786;10.120;2022-10-03T18:24:46;3.17;;;1.90;;
11042;SDS011;5574;48.786;10.120;2022-10-03T18:30:42;4.00;;;2.23;;
11042;SDS011;5574;48.786;10.120;2022-10-03T18:33:12;3.67;;;2.50;;
11042;SDS011;5574;48.786;10.120;2022-10-03T18:35:43;3.60;;;2.27;;
11042;SDS011;5574;48.786;10.120;2022-10-03T18:38:13;2.73;;;1.90;;
11042;SDS011;5574;48.786;10.120;2022-10-03T18:40:45;6.00;;;2.70;;
11042;SDS011;5574;48.786;10.120;2022-10-03T18:46:09;3.17;;;2.10;;
11042;SDS011;5574;48.786;10.120;2022-10-03T18:48:42;2.30;;;2.10;;
11042;SDS011;5574;48.786;10.120;2022-10-03T18:51:20;5.50;;;1.90;;
11042;SDS011;5574;48.786;10.120;2022-10-03T18:53:53;2.30;;;2.03;;
11042;SDS011;5574;48.786;10.120;2022-10-03T18:56:24;3.03;;;2.00;;
11042;SDS011;5574;48.786;10.120;2022-10-03T18:58:56;2.90;;;1.83;;
11042;SDS011;5574;48.786;10.120;2022-10-03T19:01:50;3.13;;;1.90;;
11042;SDS011;5574;48.786;10.120;2022-10-03T19:04:32;3.83;;;2.33;;
11042;SDS011;5574;48.786;10.120;2022-10-03T19:07:09;2.63;;;2.23;;
11042;SDS011;5574;48.786;10.120;2022-10-03T19:09:48;6.37;;;4.73;;
11042;SDS011;5574;48.786;10.120;2022-10-03T19:12:45;4.47;;;3.30;;
11042;SDS011;5574;48.786;10.120;2022-10-03T19:15:16;3.67;;;2.33;;
11042;SDS011;5574;48.786;10.120;2022-10-03T19:17:49;8.50;;;2.73;;
11042;SDS011;5574;48.786;10.120;2022-10-03T19:20:24;5.60;;;2.30;;